Time;durP1;ratioP1;P1;durP2;ratioP2;P2;SDS_P1;SDS_P2;PMS_P1;PMS_P2;Temp;Humidity;BMP_temperature;BMP_pressure;BME280_temperature;BME280_humidity;BME280_pressure;Samples;Min_cycle;Max_cycle;Signal;HPM_P1;HPM_P2
2023/07/10 00:00:20;;;;;;;1.60;1.50;;;20.40;99.90;;;;;;5066802;28;20470;-66
2023/07/10 00:02:48;;;;;;;2.00;1.90;;;20.40;99.90;;;;;;5068278;28;20455;-66
2023/07/10 00:05:17;;;;;;;2.40;2.20;;;20.40;99.90;;;;;;5070204;28;20558;-67
2023/07/10 00:07:43;;;;;;;2.47;2.37;;;20.40;99.90;;;;;;5073954;28;20475;-66
2023/07/10 00:10:12;;;;;;;1.50;1.40;;;20.40;99.90;;;;;;5069255;28;20485;-67
2023/07/10 00:12:42;;;;;;;1.63;1.53;;;20.30;99.90;;;;;;5074499;28;20887;-66
2023/07/10 00:15:19;;;;;;;1.80;1.70;;;20.30;99.90;;;;;;5068521;28;20490;-67
2023/07/10 00:17:46;;;;;;;1.53;1.43;;;20.40;99.90;;;;;;5056203;28;20466;-67
2023/07/10 00:20:19;;;;;;;1.63;1.53;;;20.30;99.90;;;;;;5070362;28;20564;-66
2023/07/10 00:22:46;;;;;;;21.17;3.00;;;20.40;99.90;;;;;;5072385;28;20467;-67
2023/07/10 00:25:16;;;;;;;1.73;1.63;;;20.40;99.90;;;;;;5072729;28;20462;-65
2023/07/10 00:27:45;;;;;;;1.90;1.80;;;20.40;99.90;;;;;;5073961;28;20541;-67
2023/07/10 00:30:23;;;;;;;5.10;4.70;;;20.40;99.90;;;;;;5069715;28;20491;-67
2023/07/10 00:32:52;;;;;;;1.73;1.63;;;20.50;99.90;;;;;;5068546;28;20467;-66
2023/07/10 00:35:20;;;;;;;4.30;3.23;;;20.50;99.90;;;;;;5072091;28;20558;-67
2023/07/10 00:37:49;;;;;;;3.67;3.37;;;20.50;99.90;;;;;;5072487;28;20473;-67
2023/07/10 00:40:22;;;;;;;2.83;2.67;;;20.50;99.90;;;;;;5064269;28;20565;-66
2023/07/10 00:42:53;;;;;;;3.70;3.50;;;20.40;99.90;;;;;;5080826;28;20464;-65
2023/07/10 00:45:22;;;;;;;8.87;4.80;;;20.40;99.90;;;;;;5068320;28;20474;-65
2023/07/10 00:47:59;;;;;;;3.83;3.43;;;20.40;99.90;;;;;;5072992;28;20673;-67
2023/07/10 00:50:31;;;;;;;2.23;2.03;;;20.40;99.90;;;;;;5070046;28;21000;-67
2023/07/10 00:53:00;;;;;;;2.83;2.63;;;20.30;99.90;;;;;;5069105;28;20859;-66
2023/07/10 00:55:30;;;;;;;9.53;7.63;;;20.30;99.90;;;;;;5071947;28;20461;-65
2023/07/10 00:58:14;;;;;;;6.13;5.03;;;20.30;99.90;;;;;;5068993;28;20987;-66
2023/07/10 01:01:03;;;;;;;29.23;4.67;;;20.20;99.90;;;;;;5069982;28;20512;-66
2023/07/10 01:03:30;;;;;;;3.67;3.37;;;20.20;99.90;;;;;;5076669;28;20457;-66
2023/07/10 01:06:03;;;;;;;11.20;8.73;;;20.20;99.90;;;;;;5068118;28;20462;-66
2023/07/10 01:08:31;;;;;;;3.17;2.97;;;20.30;99.90;;;;;;5061082;28;20462;-67
2023/07/10 01:10:59;;;;;;;1.77;1.67;;;20.30;99.90;;;;;;5073929;28;20493;-66
2023/07/10 01:13:27;;;;;;;1.70;1.60;;;20.40;99.90;;;;;;5080119;28;20466;-67
2023/07/10 01:15:54;;;;;;;2.33;2.23;;;20.30;99.90;;;;;;5076616;28;20494;-67
2023/07/10 01:18:24;;;;;;;3.40;3.20;;;20.30;99.90;;;;;;5070554;28;20459;-67
2023/07/10 01:21:06;;;;;;;2.60;2.50;;;20.40;99.90;;;;;;5067713;28;20465;-68
2023/07/10 01:23:33;;;;;;;1.90;1.80;;;20.30;99.90;;;;;;5070056;28;20898;-65
2023/07/10 01:26:02;;;;;;;2.10;2.00;;;20.40;99.90;;;;;;5064069;28;20559;-67
2023/07/10 01:28:29;;;;;;;2.97;2.77;;;20.40;99.90;;;;;;5069287;28;20956;-67
2023/07/10 01:30:58;;;;;;;2.57;2.47;;;20.40;99.90;;;;;;5071488;28;20490;-65
2023/07/10 01:33:28;;;;;;;3.40;3.20;;;20.40;99.90;;;;;;5067706;28;20466;-66
2023/07/10 01:35:58;;;;;;;3.37;3.17;;;20.40;99.90;;;;;;5068016;28;20768;-66
2023/07/10 01:38:35;;;;;;;2.80;2.70;;;20.30;99.90;;;;;;5071147;28;20463;-66
2023/07/10 01:41:13;;;;;;;3.43;3.23;;;20.40;99.90;;;;;;5062009;28;20834;-67
2023/07/10 01:43:40;;;;;;;2.30;2.20;;;20.50;99.90;;;;;;5064801;28;20467;-67
2023/07/10 01:46:19;;;;;;;2.53;2.43;;;20.50;99.90;;;;;;5072742;28;20486;-67
2023/07/10 01:48:46;;;;;;;6.13;5.63;;;20.40;99.90;;;;;;5074863;28;20866;-66
2023/07/10 01:51:13;;;;;;;2.50;2.40;;;20.50;99.90;;;;;;5077256;28;20486;-66
2023/07/10 01:53:44;;;;;;;2.97;2.87;;;20.50;99.90;;;;;;5072184;28;20486;-68
2023/07/10 01:56:11;;;;;;;5.17;4.13;;;20.50;99.90;;;;;;5064033;28;20968;-68
2023/07/10 01:58:38;;;;;;;3.77;3.40;;;20.40;99.90;;;;;;5071937;28;20845;-66
2023/07/10 02:01:05;;;;;;;7.43;6.73;;;20.40;99.90;;;;;;5075195;28;20548;-66
2023/07/10 02:03:31;;;;;;;2.50;2.40;;;20.30;99.90;;;;;;5064523;28;20462;-66
2023/07/10 02:05:58;;;;;;;4.50;3.30;;;20.40;99.90;;;;;;5076237;28;20952;-66
2023/07/10 02:08:25;;;;;;;7.17;5.57;;;20.40;99.90;;;;;;5076675;28;20475;-65
2023/07/10 02:10:54;;;;;;;3.37;3.13;;;20.40;99.90;;;;;;5072663;28;20595;-67
2023/07/10 02:13:21;;;;;;;14.70;5.97;;;20.30;99.90;;;;;;5075852;28;20528;-65
2023/07/10 02:15:48;;;;;;;7.13;5.20;;;20.40;99.90;;;;;;5078344;28;20478;-65
2023/07/10 02:18:15;;;;;;;4.70;4.33;;;20.40;99.90;;;;;;5070947;28;20868;-68
2023/07/10 02:20:43;;;;;;;3.97;3.73;;;20.20;99.90;;;;;;5080890;28;20458;-68
2023/07/10 02:23:10;;;;;;;3.37;3.27;;;20.30;99.90;;;;;;5065099;28;20457;-67
2023/07/10 02:25:37;;;;;;;7.50;6.53;;;20.20;99.90;;;;;;5088034;28;20462;-66
2023/07/10 02:28:07;;;;;;;8.50;4.43;;;20.20;99.90;;;;;;5075135;28;21038;-67
2023/07/10 02:30:36;;;;;;;2.20;2.10;;;20.20;99.90;;;;;;5078045;28;20875;-67
2023/07/10 02:33:04;;;;;;;2.87;2.70;;;20.10;99.90;;;;;;5070450;28;20462;-67
2023/07/10 02:35:31;;;;;;;2.90;2.80;;;20.10;99.90;;;;;;5070973;28;20491;-66
2023/07/10 02:37:58;;;;;;;9.20;4.77;;;20.00;99.90;;;;;;5078816;28;20454;-65
2023/07/10 02:40:25;;;;;;;9.20;7.60;;;20.00;99.90;;;;;;5068626;28;20470;-67
2023/07/10 02:42:52;;;;;;;5.83;5.43;;;19.90;99.90;;;;;;5074276;28;20465;-67
2023/07/10 02:45:21;;;;;;;5.60;5.30;;;19.90;99.90;;;;;;5083559;28;20657;-65
2023/07/10 02:47:47;;;;;;;3.20;3.10;;;19.90;99.90;;;;;;5070837;28;20475;-66
2023/07/10 02:50:13;;;;;;;2.30;2.20;;;19.80;99.90;;;;;;5081074;28;20478;-67
2023/07/10 02:52:41;;;;;;;2.20;2.10;;;19.80;99.90;;;;;;5077291;28;20474;-65
2023/07/10 02:55:09;;;;;;;1.70;1.60;;;19.80;99.90;;;;;;5072189;28;20466;-66
2023/07/10 02:57:36;;;;;;;4.00;3.80;;;19.70;99.90;;;;;;5073754;28;20459;-66
2023/07/10 03:00:03;;;;;;;3.00;2.80;;;19.80;99.90;;;;;;5068477;28;20557;-66
2023/07/10 03:02:32;;;;;;;2.07;1.97;;;19.80;99.90;;;;;;5075788;28;20461;-68
2023/07/10 03:04:59;;;;;;;4.47;4.17;;;19.70;99.90;;;;;;5070180;28;20450;-66
2023/07/10 03:07:27;;;;;;;3.60;3.30;;;19.60;99.90;;;;;;5079293;28;20721;-66
2023/07/10 03:09:54;;;;;;;2.77;2.67;;;19.60;99.90;;;;;;5071121;28;20466;-67
2023/07/10 03:12:21;;;;;;;3.93;3.70;;;19.50;99.90;;;;;;5073942;28;20499;-66
2023/07/10 03:14:49;;;;;;;6.47;5.93;;;19.60;99.90;;;;;;5081342;28;20542;-65
2023/07/10 03:17:16;;;;;;;3.50;3.30;;;19.70;99.90;;;;;;5066396;28;20918;-66
2023/07/10 03:19:45;;;;;;;3.10;2.90;;;19.60;99.90;;;;;;5078421;28;20949;-66
2023/07/10 03:22:12;;;;;;;9.30;5.53;;;19.60;99.90;;;;;;5071101;28;20490;-66
2023/07/10 03:24:40;;;;;;;5.03;4.63;;;19.60;99.90;;;;;;5077488;28;20501;-65
2023/07/10 03:27:07;;;;;;;2.50;2.40;;;19.60;99.90;;;;;;5069823;28;20548;-66
2023/07/10 03:29:35;;;;;;;4.13;3.83;;;19.50;99.90;;;;;;5069223;28;20443;-67
2023/07/10 03:32:01;;;;;;;2.87;2.77;;;19.40;99.90;;;;;;5062492;28;20632;-67
2023/07/10 03:34:28;;;;;;;2.90;2.80;;;19.40;99.90;;;;;;5080603;28;20463;-66
2023/07/10 03:36:57;;;;;;;4.50;4.10;;;19.40;99.90;;;;;;5070605;28;20469;-65
2023/07/10 03:39:24;;;;;;;14.30;5.63;;;19.30;99.90;;;;;;5072192;28;20462;-67
2023/07/10 03:41:50;;;;;;;9.13;3.27;;;19.30;99.90;;;;;;5072787;28;20474;-65
2023/07/10 03:44:18;;;;;;;4.30;4.10;;;19.30;99.90;;;;;;5074984;28;20493;-67
2023/07/10 03:46:44;;;;;;;3.33;3.23;;;19.20;99.90;;;;;;5079652;28;20490;-67
2023/07/10 03:49:11;;;;;;;5.57;5.17;;;19.20;99.90;;;;;;5070650;28;20485;-67
2023/07/10 03:51:39;;;;;;;3.63;3.53;;;19.20;99.90;;;;;;5079994;28;20486;-66
2023/07/10 03:54:09;;;;;;;4.33;4.13;;;19.30;99.90;;;;;;5074225;28;20486;-67
2023/07/10 03:56:36;;;;;;;4.07;3.87;;;19.20;99.90;;;;;;5067814;28;20469;-65
2023/07/10 03:59:07;;;;;;;12.70;3.67;;;19.10;99.90;;;;;;5073868;28;20458;-67
2023/07/10 04:01:35;;;;;;;3.00;2.90;;;19.00;99.90;;;;;;5072667;28;20469;-66
2023/07/10 04:04:04;;;;;;;3.20;3.10;;;19.00;99.90;;;;;;5069106;28;20463;-67
2023/07/10 04:06:31;;;;;;;4.57;4.10;;;19.10;99.90;;;;;;5068905;28;20829;-67
2023/07/10 04:09:00;;;;;;;3.60;3.50;;;19.10;99.90;;;;;;5068680;28;20462;-67
2023/07/10 04:11:30;;;;;;;3.20;3.10;;;19.20;99.90;;;;;;5078395;28;20486;-65
2023/07/10 04:13:57;;;;;;;3.00;2.90;;;19.20;99.90;;;;;;5067086;28;20473;-67
2023/07/10 04:16:27;;;;;;;3.70;3.60;;;19.20;99.90;;;;;;5074253;28;20483;-67
2023/07/10 04:18:55;;;;;;;3.20;3.10;;;19.30;99.90;;;;;;5068775;28;20519;-67
2023/07/10 04:21:24;;;;;;;3.40;3.30;;;19.30;99.90;;;;;;5069610;28;20976;-65
2023/07/10 04:23:52;;;;;;;3.00;2.90;;;19.40;99.90;;;;;;5067048;28;20455;-65
2023/07/10 04:26:22;;;;;;;3.40;3.30;;;19.40;99.90;;;;;;5069353;28;21462;-66
2023/07/10 04:28:54;;;;;;;8.10;4.00;;;19.40;99.90;;;;;;5078553;28;20820;-67
2023/07/10 04:31:22;;;;;;;3.70;3.60;;;19.50;99.90;;;;;;5080679;28;20490;-66
2023/07/10 04:33:50;;;;;;;4.00;3.90;;;19.50;99.90;;;;;;5069104;28;20458;-67
2023/07/10 04:36:17;;;;;;;3.93;3.83;;;19.50;99.90;;;;;;5074148;28;20482;-66
2023/07/10 04:38:44;;;;;;;4.20;4.10;;;19.50;99.90;;;;;;5068431;28;20478;-66
2023/07/10 04:41:14;;;;;;;4.87;4.73;;;19.50;99.90;;;;;;5065558;28;20969;-66
2023/07/10 04:43:41;;;;;;;4.83;4.63;;;19.50;99.90;;;;;;5070336;28;20466;-65
2023/07/10 04:46:11;;;;;;;4.60;4.50;;;19.50;99.90;;;;;;5073183;28;20481;-65
2023/07/10 04:48:42;;;;;;;4.50;4.40;;;19.50;99.90;;;;;;5077204;28;20470;-65
2023/07/10 04:51:13;;;;;;;4.60;4.50;;;19.60;99.90;;;;;;5081092;28;20565;-66
2023/07/10 04:53:40;;;;;;;5.63;5.43;;;19.60;99.90;;;;;;5068255;28;20537;-67
2023/07/10 04:56:10;;;;;;;5.10;5.00;;;19.60;99.90;;;;;;5071332;28;20463;-66
2023/07/10 04:58:48;;;;;;;5.00;4.90;;;19.70;99.90;;;;;;5068429;28;20455;-67
2023/07/10 05:01:17;;;;;;;6.17;5.97;;;19.80;99.90;;;;;;5071632;28;20682;-68
2023/07/10 05:03:44;;;;;;;5.67;5.47;;;19.90;99.90;;;;;;5070041;28;20882;-67
2023/07/10 05:06:11;;;;;;;7.30;6.80;;;19.90;99.90;;;;;;5066511;28;20463;-67
2023/07/10 05:08:38;;;;;;;5.30;5.20;;;20.00;99.90;;;;;;5050055;28;20451;-67
2023/07/10 05:11:05;;;;;;;5.03;4.93;;;20.00;99.90;;;;;;5054135;28;20506;-68
2023/07/10 05:13:32;;;;;;;5.70;5.50;;;19.90;99.90;;;;;;5069033;28;20840;-67
2023/07/10 05:16:00;;;;;;;5.80;5.60;;;19.90;99.90;;;;;;5054593;28;20487;-67
2023/07/10 05:18:29;;;;;;;5.60;5.40;;;19.90;99.90;;;;;;5052074;28;20821;-67
2023/07/10 05:20:59;;;;;;;5.80;5.60;;;19.90;99.90;;;;;;5051515;28;20495;-67
2023/07/10 05:23:27;;;;;;;5.30;5.20;;;19.90;99.90;;;;;;5054089;28;20536;-67
2023/07/10 05:25:59;;;;;;;6.73;6.53;;;20.10;99.90;;;;;;5050836;28;21184;-66
2023/07/10 05:28:27;;;;;;;7.00;6.80;;;20.20;99.90;;;;;;5072971;28;20458;-68
2023/07/10 05:30:54;;;;;;;7.57;7.30;;;20.10;99.90;;;;;;5070322;28;20459;-64
2023/07/10 05:33:22;;;;;;;6.10;5.90;;;20.10;99.90;;;;;;5054392;28;20466;-67
2023/07/10 05:35:52;;;;;;;9.47;9.00;;;20.10;99.90;;;;;;5049108;28;20460;-66
2023/07/10 05:38:19;;;;;;;6.37;6.17;;;20.00;99.90;;;;;;5059235;28;20458;-67
2023/07/10 05:40:45;;;;;;;8.87;8.40;;;20.10;99.90;;;;;;5061745;28;20816;-65
2023/07/10 05:43:12;;;;;;;6.53;6.33;;;20.20;99.90;;;;;;5058018;28;20868;-66
2023/07/10 05:45:39;;;;;;;6.50;6.30;;;20.30;99.90;;;;;;5059714;28;20788;-66
2023/07/10 05:48:07;;;;;;;6.57;6.37;;;20.40;99.90;;;;;;5058417;28;20467;-66
2023/07/10 05:50:34;;;;;;;8.70;8.10;;;20.40;99.90;;;;;;5056446;28;20467;-65
2023/07/10 05:53:03;;;;;;;7.83;7.53;;;20.40;99.90;;;;;;5056380;28;21832;-66
2023/07/10 05:55:30;;;;;;;7.87;7.57;;;20.40;99.90;;;;;;5056774;28;20479;-67
2023/07/10 05:57:57;;;;;;;7.50;7.20;;;20.60;99.90;;;;;;5059340;28;20462;-67
2023/07/10 06:00:24;;;;;;;8.23;7.87;;;20.60;99.90;;;;;;5065717;28;20467;-66
2023/07/10 06:02:51;;;;;;;7.70;7.50;;;20.70;99.90;;;;;;5070318;28;20546;-66
2023/07/10 06:05:19;;;;;;;9.13;8.47;;;20.60;99.90;;;;;;5064439;28;20858;-65
2023/07/10 06:07:46;;;;;;;9.43;8.77;;;20.60;99.90;;;;;;5072064;28;20570;-68
2023/07/10 06:10:14;;;;;;;13.07;9.73;;;20.70;99.90;;;;;;5061905;28;20777;-65
2023/07/10 06:12:42;;;;;;;9.83;9.33;;;20.70;99.90;;;;;;5080000;28;20482;-66
2023/07/10 06:15:10;;;;;;;8.87;8.57;;;20.60;99.90;;;;;;5070830;28;20577;-67
2023/07/10 06:17:38;;;;;;;9.47;9.07;;;20.60;99.90;;;;;;5058052;28;20463;-66
2023/07/10 06:20:06;;;;;;;9.17;8.87;;;20.80;99.90;;;;;;5057103;28;20471;-65
2023/07/10 06:22:33;;;;;;;10.53;10.00;;;20.80;99.90;;;;;;5060871;28;20465;-67
2023/07/10 06:25:00;;;;;;;12.70;11.67;;;20.80;99.90;;;;;;5056181;28;20509;-65
2023/07/10 06:27:28;;;;;;;10.47;9.83;;;20.70;99.90;;;;;;5055776;28;20463;-65
2023/07/10 06:29:56;;;;;;;11.10;10.50;;;20.60;99.90;;;;;;5055725;28;20460;-67
2023/07/10 06:32:23;;;;;;;12.37;11.57;;;20.50;99.90;;;;;;5058432;28;20842;-67
2023/07/10 06:34:52;;;;;;;11.97;11.37;;;20.40;99.90;;;;;;5065737;28;20458;-67
2023/07/10 06:37:19;;;;;;;10.70;10.30;;;20.20;99.90;;;;;;5064488;28;20494;-65
2023/07/10 06:40:06;;;;;;;10.90;10.47;;;20.30;99.90;;;;;;5058746;28;20528;-65
2023/07/10 06:42:34;;;;;;;11.60;10.90;;;20.40;99.90;;;;;;5057627;28;20455;-67
2023/07/10 06:45:02;;;;;;;12.70;12.10;;;20.60;99.90;;;;;;5057996;28;20464;-67
2023/07/10 06:47:30;;;;;;;11.40;10.80;;;20.60;99.90;;;;;;5065306;28;20473;-66
2023/07/10 06:49:57;;;;;;;12.73;12.13;;;20.60;99.90;;;;;;5062796;28;20459;-65
2023/07/10 06:52:24;;;;;;;13.10;12.50;;;20.50;99.90;;;;;;5065640;28;20568;-67
2023/07/10 06:54:52;;;;;;;12.27;11.73;;;20.50;99.90;;;;;;5067491;28;20455;-67
2023/07/10 06:57:20;;;;;;;12.80;12.30;;;20.70;99.90;;;;;;5060367;28;20460;-66
2023/07/10 06:59:48;;;;;;;12.37;11.87;;;20.70;99.90;;;;;;5054385;28;20556;-66
2023/07/10 07:02:14;;;;;;;17.70;16.83;;;20.70;99.90;;;;;;5064457;28;20489;-65
2023/07/10 07:04:42;;;;;;;14.03;13.33;;;20.70;99.90;;;;;;5069931;28;20505;-66
2023/07/10 07:07:09;;;;;;;12.77;12.27;;;20.80;99.90;;;;;;5068264;28;20466;-67
2023/07/10 07:09:38;;;;;;;13.17;12.67;;;20.80;99.90;;;;;;5059533;28;20494;-66
2023/07/10 07:12:06;;;;;;;12.93;12.43;;;20.70;99.90;;;;;;5069587;28;20493;-65
2023/07/10 07:14:32;;;;;;;14.07;13.40;;;21.00;99.90;;;;;;5057596;28;20528;-66
2023/07/10 07:17:01;;;;;;;13.80;13.20;;;20.90;99.90;;;;;;5062662;28;20483;-67
2023/07/10 07:19:27;;;;;;;13.27;12.77;;;21.00;99.90;;;;;;5054021;28;20451;-67
2023/07/10 07:21:55;;;;;;;14.80;14.10;;;21.00;99.90;;;;;;5066634;28;20474;-66
2023/07/10 07:24:22;;;;;;;12.90;12.40;;;21.10;99.90;;;;;;5061307;28;20458;-66
2023/07/10 07:26:49;;;;;;;38.67;36.80;;;21.20;99.90;;;;;;5058875;28;20470;-67
2023/07/10 07:29:16;;;;;;;28.80;27.47;;;21.40;99.90;;;;;;5062237;28;21123;-66
2023/07/10 07:31:43;;;;;;;16.33;15.60;;;21.50;99.90;;;;;;5070497;28;20470;-66
2023/07/10 07:34:11;;;;;;;24.97;23.90;;;21.60;99.90;;;;;;5071255;28;20455;-66
2023/07/10 07:36:38;;;;;;;25.30;24.17;;;21.70;99.90;;;;;;5064563;28;20454;-66
2023/07/10 07:39:06;;;;;;;18.77;17.87;;;21.60;99.90;;;;;;5056988;28;20479;-67
2023/07/10 07:41:33;;;;;;;13.80;13.20;;;21.70;99.90;;;;;;5068826;28;20478;-66
2023/07/10 07:44:00;;;;;;;15.80;15.00;;;21.80;99.90;;;;;;5067029;28;20466;-67
2023/07/10 07:46:28;;;;;;;39.77;15.07;;;21.80;99.90;;;;;;5079780;28;20458;-66
2023/07/10 07:48:56;;;;;;;16.67;15.20;;;22.00;99.90;;;;;;5074212;28;20468;-67
2023/07/10 07:51:26;;;;;;;20.03;19.13;;;22.00;99.90;;;;;;5068914;28;20462;-66
2023/07/10 07:54:04;;;;;;;27.17;25.90;;;22.10;99.90;;;;;;5067671;28;20508;-67
2023/07/10 07:56:30;;;;;;;15.10;14.40;;;22.10;99.90;;;;;;5072150;28;20453;-68
2023/07/10 07:58:57;;;;;;;14.97;14.17;;;22.00;99.90;;;;;;5071892;28;20504;-67
2023/07/10 08:01:24;;;;;;;15.37;14.67;;;21.90;99.90;;;;;;5084970;28;20461;-67
2023/07/10 08:03:51;;;;;;;14.97;14.27;;;22.00;99.90;;;;;;5068202;28;20459;-67
2023/07/10 08:06:17;;;;;;;14.73;14.13;;;22.10;99.90;;;;;;5077680;28;20464;-67
2023/07/10 08:08:47;;;;;;;16.17;15.37;;;22.10;99.90;;;;;;5069860;28;20735;-67
2023/07/10 08:11:16;;;;;;;15.03;14.33;;;22.30;99.90;;;;;;5066974;28;20474;-67
2023/07/10 08:13:43;;;;;;;21.53;20.47;;;22.50;99.90;;;;;;5068083;28;20490;-67
2023/07/10 08:16:10;;;;;;;15.23;14.53;;;22.80;99.90;;;;;;5069778;28;20569;-68
2023/07/10 08:18:37;;;;;;;16.23;15.43;;;23.30;99.90;;;;;;5055071;28;20467;-68
2023/07/10 08:21:05;;;;;;;16.93;16.13;;;23.80;99.90;;;;;;5062405;28;20536;-69
2023/07/10 08:23:32;;;;;;;15.80;15.10;;;24.50;99.90;;;;;;5056845;28;20892;-68
2023/07/10 08:26:00;;;;;;;16.80;16.00;;;25.00;99.90;;;;;;5069357;28;20462;-67
2023/07/10 08:28:27;;;;;;;17.67;16.87;;;24.80;99.90;;;;;;5062018;28;20555;-67
2023/07/10 08:30:54;;;;;;;16.60;15.80;;;25.30;99.90;;;;;;5070982;28;20519;-67
2023/07/10 08:33:21;;;;;;;18.20;16.93;;;25.60;99.90;;;;;;5065062;28;20975;-67
2023/07/10 08:35:54;;;;;;;20.43;19.23;;;25.90;99.90;;;;;;5066082;28;20831;-68
2023/07/10 08:38:21;;;;;;;18.30;17.40;;;25.90;99.90;;;;;;5066327;28;20454;-68
2023/07/10 08:40:50;;;;;;;29.70;28.20;;;26.10;99.90;;;;;;5065859;28;20973;-68
2023/07/10 08:43:27;;;;;;;19.80;18.80;;;26.20;99.90;;;;;;5064506;28;20463;-67
2023/07/10 08:46:02;;;;;;;17.67;16.87;;;26.20;99.90;;;;;;5063684;28;20475;-69
2023/07/10 08:48:34;;;;;;;22.17;20.87;;;26.20;99.90;;;;;;5064816;28;20453;-68
2023/07/10 08:51:10;;;;;;;19.03;17.93;;;26.30;99.90;;;;;;5065652;28;20458;-67
2023/07/10 08:53:40;;;;;;;17.73;16.90;;;26.80;99.90;;;;;;5062234;28;20490;-68
2023/07/10 08:56:18;;;;;;;18.63;17.73;;;26.70;99.90;;;;;;5060341;28;20470;-68
2023/07/10 08:58:47;;;;;;;18.90;18.00;;;26.80;99.90;;;;;;5060237;28;20470;-68
2023/07/10 09:01:27;;;;;;;20.77;19.77;;;27.40;99.90;;;;;;5068073;28;20459;-69
2023/07/10 09:03:58;;;;;;;18.23;17.33;;;27.30;99.90;;;;;;5066202;28;20463;-68
2023/07/10 09:06:35;;;;;;;17.43;16.63;;;27.40;99.90;;;;;;5064452;28;20478;-67
2023/07/10 09:09:05;;;;;;;18.57;17.67;;;27.70;99.90;;;;;;5068267;28;20450;-68
2023/07/10 09:11:33;;;;;;;40.03;37.97;;;28.00;99.90;;;;;;5066499;28;20454;-67
2023/07/10 09:14:12;;;;;;;18.37;17.47;;;28.00;99.90;;;;;;5065021;28;20490;-66
2023/07/10 09:16:39;;;;;;;17.80;17.00;;;27.90;99.90;;;;;;5075189;28;20478;-67
2023/07/10 09:19:14;;;;;;;18.20;17.30;;;28.30;99.90;;;;;;5071005;28;20478;-68
2023/07/10 09:21:42;;;;;;;18.03;17.13;;;28.30;99.90;;;;;;5075809;28;20458;-67
2023/07/10 09:24:15;;;;;;;18.10;17.40;;;28.40;99.90;;;;;;5069471;28;20953;-67
2023/07/10 09:26:43;;;;;;;16.77;16.17;;;28.50;99.90;;;;;;5067228;28;20491;-67
2023/07/10 09:29:26;;;;;;;20.07;19.27;;;28.40;99.90;;;;;;5072250;28;20903;-69
2023/07/10 09:31:59;;;;;;;20.20;19.33;;;28.70;99.90;;;;;;5076253;28;20532;-67
2023/07/10 09:34:30;;;;;;;16.80;16.20;;;28.20;99.90;;;;;;5071640;28;20494;-67
2023/07/10 09:36:58;;;;;;;16.93;16.33;;;28.40;99.90;;;;;;5069465;28;20467;-66
2023/07/10 09:39:27;;;;;;;16.73;16.13;;;29.00;99.90;;;;;;5068710;28;20460;-69
2023/07/10 09:41:54;;;;;;;17.50;16.80;;;29.20;99.90;;;;;;5067550;28;20836;-67
2023/07/10 09:44:23;;;;;;;21.37;20.17;;;29.00;99.90;;;;;;5068921;28;20459;-67
2023/07/10 09:46:58;;;;;;;21.47;20.40;;;29.20;99.90;;;;;;5065196;28;20866;-67
2023/07/10 09:49:27;;;;;;;18.30;17.40;;;29.00;99.90;;;;;;5075720;28;20509;-67
2023/07/10 09:51:57;;;;;;;18.40;17.50;;;28.70;99.90;;;;;;5069908;28;21089;-66
2023/07/10 09:54:24;;;;;;;18.20;17.40;;;29.20;99.90;;;;;;5064785;28;20498;-68
2023/07/10 09:56:54;;;;;;;18.40;17.57;;;29.40;99.90;;;;;;5068175;28;20459;-66
2023/07/10 09:59:25;;;;;;;18.00;17.20;;;29.60;99.90;;;;;;5066957;28;20573;-66
2023/07/10 10:01:53;;;;;;;29.20;27.83;;;29.20;99.90;;;;;;5064915;28;20456;-67
2023/07/10 10:04:23;;;;;;;16.40;15.80;;;29.60;99.90;;;;;;5070287;28;20463;-67
2023/07/10 10:06:56;;;;;;;16.40;15.80;;;29.10;99.90;;;;;;5069217;28;20516;-67
2023/07/10 10:09:27;;;;;;;32.93;31.47;;;29.40;99.90;;;;;;5068362;28;20459;-67
2023/07/10 10:12:00;;;;;;;17.73;16.93;;;29.50;99.90;;;;;;5071334;28;20462;-68
2023/07/10 10:14:41;;;;;;;17.37;16.57;;;29.80;99.90;;;;;;5061492;28;21580;-66
2023/07/10 10:17:12;;;;;;;18.47;17.40;;;29.60;99.90;;;;;;5074405;28;20458;-68
2023/07/10 10:19:44;;;;;;;18.67;17.67;;;30.00;99.90;;;;;;5060573;28;20813;-67
2023/07/10 10:22:12;;;;;;;18.00;17.20;;;30.30;99.90;;;;;;5065197;28;20454;-68
2023/07/10 10:24:39;;;;;;;17.93;17.07;;;30.30;99.90;;;;;;5067956;28;20839;-67
2023/07/10 10:27:20;;;;;;;18.47;17.57;;;30.40;99.90;;;;;;5062916;28;20463;-67
2023/07/10 10:30:12;;;;;;;18.67;16.77;;;30.20;99.90;;;;;;5068946;28;20781;-68
2023/07/10 10:32:45;;;;;;;17.97;17.03;;;29.70;99.90;;;;;;5065958;28;20455;-67
2023/07/10 10:35:22;;;;;;;19.37;18.10;;;29.80;99.90;;;;;;5071744;28;20481;-67
2023/07/10 10:38:01;;;;;;;21.60;20.60;;;30.00;99.90;;;;;;5066951;28;20512;-67
2023/07/10 10:40:37;;;;;;;17.17;16.43;;;29.50;99.90;;;;;;5068355;28;20550;-66
2023/07/10 10:43:31;;;;;;;17.80;17.00;;;29.80;99.90;;;;;;5061918;28;20946;-66
2023/07/10 10:46:04;;;;;;;16.67;16.07;;;30.20;99.90;;;;;;5066765;28;20485;-66
2023/07/10 10:48:36;;;;;;;16.07;15.47;;;30.30;99.90;;;;;;5068638;28;20520;-68
2023/07/10 10:51:11;;;;;;;17.07;16.37;;;30.10;99.90;;;;;;5064480;28;20489;-67
2023/07/10 10:53:49;;;;;;;15.97;15.37;;;30.20;99.90;;;;;;5063363;28;20568;-67
2023/07/10 10:56:21;;;;;;;16.17;15.57;;;29.80;99.90;;;;;;5069377;28;20491;-66
2023/07/10 10:59:19;;;;;;;15.50;15.00;;;29.80;99.90;;;;;;5067342;28;20806;-66
2023/07/10 11:01:54;;;;;;;15.73;15.23;;;30.40;98.70;;;;;;5062647;28;20474;-67
2023/07/10 11:04:26;;;;;;;16.20;15.60;;;31.00;98.90;;;;;;5064228;28;20465;-66
2023/07/10 11:06:56;;;;;;;16.20;15.60;;;30.20;97.20;;;;;;5066029;28;20469;-66
2023/07/10 11:09:27;;;;;;;16.37;15.77;;;29.80;98.70;;;;;;5067447;28;20823;-67
2023/07/10 11:11:55;;;;;;;16.00;15.50;;;29.80;98.80;;;;;;5067889;28;20687;-67
2023/07/10 11:14:23;;;;;;;19.57;18.77;;;29.70;99.20;;;;;;5070227;28;20513;-66
2023/07/10 11:16:54;;;;;;;18.00;17.00;;;29.70;99.50;;;;;;5064089;28;20522;-66
2023/07/10 11:19:25;;;;;;;17.63;16.83;;;29.10;99.30;;;;;;5066428;28;20450;-66
2023/07/10 11:21:52;;;;;;;20.90;19.43;;;29.20;99.20;;;;;;5062084;28;20976;-66
2023/07/10 11:24:31;;;;;;;23.00;21.80;;;29.80;97.70;;;;;;5058557;28;20467;-65
2023/07/10 11:27:01;;;;;;;16.40;15.80;;;30.70;97.20;;;;;;5058851;28;20471;-67
2023/07/10 11:29:31;;;;;;;16.37;15.77;;;31.00;97.60;;;;;;5064806;28;20498;-66
2023/07/10 11:32:02;;;;;;;16.10;15.50;;;32.00;96.10;;;;;;5067207;28;20462;-67
2023/07/10 11:34:48;;;;;;;16.47;15.87;;;32.10;95.30;;;;;;5066105;28;20503;-66
2023/07/10 11:37:54;;;;;;;16.47;15.87;;;31.20;95.30;;;;;;5065502;28;20471;-66
2023/07/10 11:40:50;;;;;;;15.97;15.37;;;30.40;96.90;;;;;;5067971;28;20545;-67
2023/07/10 11:43:54;;;;;;;16.23;15.63;;;29.10;96.10;;;;;;5062879;28;20800;-66
2023/07/10 11:46:30;;;;;;;16.50;15.90;;;29.40;97.20;;;;;;5060244;28;20501;-67
2023/07/10 11:49:10;;;;;;;17.20;16.50;;;30.30;98.30;;;;;;5065816;28;20557;-66
2023/07/10 11:51:41;;;;;;;16.70;16.10;;;30.00;97.50;;;;;;5066580;28;20855;-65
2023/07/10 11:54:36;;;;;;;16.20;15.60;;;30.50;96.80;;;;;;5067381;28;20854;-65
2023/07/10 11:57:05;;;;;;;16.30;15.70;;;30.90;96.10;;;;;;5043032;28;20471;-66
2023/07/10 11:59:34;;;;;;;16.67;16.07;;;30.70;95.70;;;;;;5070747;28;20508;-66
2023/07/10 12:02:01;;;;;;;16.30;15.70;;;31.50;94.50;;;;;;5068325;28;20847;-66
2023/07/10 12:04:31;;;;;;;16.50;15.90;;;32.60;93.10;;;;;;5065519;28;20500;-65
2023/07/10 12:06:58;;;;;;;16.83;16.23;;;32.60;91.60;;;;;;5067457;28;20529;-64
2023/07/10 12:09:26;;;;;;;15.63;15.13;;;32.90;90.60;;;;;;5063127;28;20830;-64
2023/07/10 12:11:56;;;;;;;15.50;15.00;;;32.90;90.30;;;;;;5065647;28;20829;-65
2023/07/10 12:14:23;;;;;;;16.07;15.57;;;32.30;91.20;;;;;;5059871;28;20565;-66
2023/07/10 12:16:54;;;;;;;15.33;14.83;;;31.30;91.90;;;;;;5063876;28;20885;-66
2023/07/10 12:19:27;;;;;;;16.00;15.50;;;31.40;92.60;;;;;;5061319;28;20497;-65
2023/07/10 12:22:00;;;;;;;16.60;16.00;;;32.30;91.80;;;;;;5055811;28;20451;-66
2023/07/10 12:24:29;;;;;;;16.30;15.70;;;32.50;90.90;;;;;;5064047;28;20501;-66
2023/07/10 12:26:59;;;;;;;15.40;14.90;;;32.90;90.20;;;;;;5065102;28;20528;-67
2023/07/10 12:29:27;;;;;;;15.60;15.10;;;32.80;88.10;;;;;;5066228;28;20479;-66
2023/07/10 12:31:54;;;;;;;14.90;14.40;;;31.90;90.10;;;;;;5067190;28;20466;-66
2023/07/10 12:34:24;;;;;;;14.93;14.43;;;30.50;92.40;;;;;;5062434;28;20487;-66
2023/07/10 12:36:53;;;;;;;15.20;14.70;;;30.00;92.50;;;;;;5070658;28;20474;-66
2023/07/10 12:39:22;;;;;;;14.57;14.10;;;29.90;92.90;;;;;;5066823;28;20458;-65
2023/07/10 12:41:53;;;;;;;15.10;14.60;;;29.90;92.00;;;;;;5072297;28;20578;-66
2023/07/10 12:44:23;;;;;;;15.37;14.87;;;29.80;93.20;;;;;;5067257;28;20473;-65
2023/07/10 12:46:55;;;;;;;15.77;15.23;;;29.60;92.30;;;;;;5066217;28;20957;-66
2023/07/10 12:49:28;;;;;;;15.70;15.20;;;30.00;92.50;;;;;;5068541;28;21011;-65